www.cux-wetter.de
Wetterdaten: Montag, 04.06.2007
Datum Zeit Temp. A. Feuchte A. Luftdruck Regen Wind Richtung Richtung Sonnenschein Solar Taupunkt Windchill Windben
04.06.2007 00:01 16,2 C 72 % 1021,5 hPa 0,0 l/m 12,5 km/h (2 Bft) O 95 0 min 0 W/m 11,1 C 13,5 C 12,5 km/h (2 Bft)
04.06.2007 00:16 15,7 C 72 % 1021,5 hPa 0,0 l/m 13,8 km/h (3 Bft) O-NO 65 0 min 0 W/m 10,7 C 12,4 C 13,8 km/h (3 Bft)
04.06.2007 00:31 15,6 C 73 % 1021,5 hPa 0,0 l/m 16,0 km/h (3 Bft) O-SO 105 0 min 0 W/m 10,8 C 11,6 C 16,0 km/h (3 Bft)
04.06.2007 00:46 15,7 C 73 % 1021,5 hPa 0,0 l/m 9,6 km/h (2 Bft) O-NO 75 0 min 0 W/m 10,9 C 14,1 C 9,6 km/h (2 Bft)
04.06.2007 01:01 15,6 C 73 % 1022,5 hPa 0,0 l/m 13,3 km/h (3 Bft) O 80 0 min 0 W/m 10,8 C 12,5 C 13,3 km/h (3 Bft)
04.06.2007 01:16 15,3 C 74 % 1022,5 hPa 0,0 l/m 8,3 km/h (2 Bft) O-SO 105 0 min 0 W/m 10,7 C 14,3 C 8,3 km/h (2 Bft)
04.06.2007 01:31 14,8 C 75 % 1022,5 hPa 0,0 l/m 12,0 km/h (2 Bft) O-NO 60 0 min 0 W/m 10,4 C 12,0 C 12,0 km/h (2 Bft)
04.06.2007 01:46 14,5 C 76 % 1022,5 hPa 0,0 l/m 15,5 km/h (3 Bft) O 80 0 min 0 W/m 10,3 C 10,4 C 15,5 km/h (3 Bft)
04.06.2007 02:01 14,4 C 77 % 1021,5 hPa 0,0 l/m 14,2 km/h (3 Bft) O 95 0 min 0 W/m 10,4 C 10,7 C 14,2 km/h (3 Bft)
04.06.2007 02:16 14,6 C 78 % 1021,5 hPa 0,0 l/m 11,8 km/h (2 Bft) O 90 0 min 0 W/m 10,8 C 11,9 C 11,8 km/h (2 Bft)
04.06.2007 02:31 14,5 C 78 % 1021,5 hPa 0,0 l/m 13,0 km/h (3 Bft) O 100 0 min 0 W/m 10,7 C 11,3 C 13,0 km/h (3 Bft)
04.06.2007 02:46 14,6 C 78 % 1021,5 hPa 0,0 l/m 10,6 km/h (2 Bft) O-SO 105 0 min 0 W/m 10,8 C 12,4 C 10,6 km/h (2 Bft)
04.06.2007 03:01 14,8 C 78 % 1021,5 hPa 0,0 l/m 11,5 km/h (2 Bft) O 100 0 min 0 W/m 11,0 C 12,2 C 11,5 km/h (2 Bft)
04.06.2007 03:16 14,8 C 78 % 1021,5 hPa 0,0 l/m 16,0 km/h (3 Bft) O-SO 120 0 min 0 W/m 11,0 C 10,6 C 16,0 km/h (3 Bft)
04.06.2007 03:31 14,8 C 78 % 1021,5 hPa 0,0 l/m 9,5 km/h (2 Bft) O 95 0 min 0 W/m 11,0 C 13,1 C 9,5 km/h (2 Bft)
04.06.2007 03:46 14,7 C 79 % 1021,5 hPa 0,0 l/m 12,1 km/h (2 Bft) N-NO 20 0 min 0 W/m 11,1 C 11,9 C 12,1 km/h (2 Bft)
04.06.2007 04:01 14,4 C 78 % 1021,5 hPa 0,0 l/m 12,2 km/h (2 Bft) O-NO 70 0 min 0 W/m 10,6 C 11,5 C 12,2 km/h (2 Bft)
04.06.2007 04:16 14,0 C 79 % 1021,5 hPa 0,0 l/m 15,0 km/h (3 Bft) O-NO 70 0 min 0 W/m 10,4 C 10,0 C 15,0 km/h (3 Bft)
04.06.2007 04:31 13,9 C 80 % 1021,5 hPa 0,0 l/m 11,1 km/h (2 Bft) O-NO 70 0 min 0 W/m 10,5 C 11,4 C 11,1 km/h (2 Bft)
04.06.2007 04:46 13,9 C 80 % 1021,5 hPa 0,0 l/m 14,5 km/h (3 Bft) O 90 0 min 0 W/m 10,5 C 10,0 C 14,5 km/h (3 Bft)
04.06.2007 05:01 14,0 C 80 % 1021,5 hPa 0,0 l/m 16,5 km/h (3 Bft) O-SO 110 0 min 0 W/m 10,6 C 9,5 C 16,5 km/h (3 Bft)
04.06.2007 05:16 14,0 C 80 % 1021,5 hPa 0,0 l/m 14,1 km/h (3 Bft) O-NO 75 0 min 0 W/m 10,6 C 10,3 C 14,1 km/h (3 Bft)
04.06.2007 05:31 13,9 C 81 % 1021,5 hPa 0,0 l/m 12,6 km/h (3 Bft) NO 55 0 min 0 W/m 10,7 C 10,8 C 12,6 km/h (3 Bft)
04.06.2007 05:46 14,0 C 82 % 1021,5 hPa 0,0 l/m 15,5 km/h (3 Bft) O 80 0 min 0 W/m 11,0 C 9,8 C 15,5 km/h (3 Bft)
04.06.2007 06:01 14,2 C 82 % 1021,5 hPa 0,0 l/m 16,1 km/h (3 Bft) O 90 0 min 0 W/m 11,2 C 9,9 C 16,1 km/h (3 Bft)
04.06.2007 06:16 14,4 C 82 % 1021,5 hPa 0,0 l/m 14,9 km/h (3 Bft) O 90 0 min 0 W/m 11,4 C 10,5 C 14,9 km/h (3 Bft)
04.06.2007 06:31 14,4 C 82 % 1021,5 hPa 0,0 l/m 16,1 km/h (3 Bft) NO 50 0 min 0 W/m 11,4 C 10,1 C 16,1 km/h (3 Bft)
04.06.2007 06:46 14,8 C 83 % 1021,5 hPa 0,0 l/m 15,0 km/h (3 Bft) O 80 0 min 0 W/m 11,9 C 10,9 C 15,0 km/h (3 Bft)
04.06.2007 07:01 15,7 C 78 % 1021,5 hPa 0,0 l/m 17,5 km/h (3 Bft) SO 125 0 min 0 W/m 11,9 C 11,3 C 17,5 km/h (3 Bft)
04.06.2007 07:16 16,0 C 77 % 1021,5 hPa 0,0 l/m 14,6 km/h (3 Bft) O 95 0 min 0 W/m 12,0 C 12,5 C 14,6 km/h (3 Bft)
04.06.2007 07:31 16,2 C 77 % 1021,5 hPa 0,0 l/m 15,6 km/h (3 Bft) SO 125 0 min 0 W/m 12,2 C 12,5 C 15,6 km/h (3 Bft)
04.06.2007 07:46 16,6 C 75 % 1021,5 hPa 0,0 l/m 18,3 km/h (3 Bft) O-NO 75 0 min 0 W/m 12,1 C 12,2 C 18,3 km/h (3 Bft)
04.06.2007 08:01 17,1 C 73 % 1021,5 hPa 0,0 l/m 16,5 km/h (3 Bft) N-NO 30 0 min 0 W/m 12,2 C 13,3 C 16,5 km/h (3 Bft)
04.06.2007 08:16 17,7 C 70 % 1022,5 hPa 0,0 l/m 13,6 km/h (3 Bft) NO 50 0 min 0 W/m 12,2 C 14,9 C 13,6 km/h (3 Bft)
04.06.2007 08:31 17,7 C 69 % 1022,5 hPa 0,0 l/m 12,8 km/h (3 Bft) O-NO 75 0 min 0 W/m 11,9 C 15,1 C 12,8 km/h (3 Bft)
04.06.2007 08:46 18,1 C 69 % 1022,5 hPa 0,0 l/m 15,3 km/h (3 Bft) O 80 0 min 0 W/m 12,3 C 14,9 C 15,3 km/h (3 Bft)
04.06.2007 09:01 18,4 C 68 % 1022,5 hPa 0,0 l/m 16,3 km/h (3 Bft) NO 55 0 min 0 W/m 12,4 C 15,0 C 16,3 km/h (3 Bft)
04.06.2007 09:16 18,0 C 69 % 1022,5 hPa 0,0 l/m 14,0 km/h (3 Bft) O 80 0 min 0 W/m 12,2 C 15,1 C 14,0 km/h (3 Bft)
04.06.2007 09:31 19,1 C 67 % 1022,5 hPa 0,0 l/m 13,3 km/h (3 Bft) O-NO 65 0 min 0 W/m 12,8 C 16,6 C 13,3 km/h (3 Bft)
04.06.2007 09:46 19,7 C 62 % 1022,5 hPa 0,0 l/m 11,2 km/h (2 Bft) O 100 0 min 0 W/m 12,2 C 17,9 C 11,2 km/h (2 Bft)
04.06.2007 10:01 20,7 C 60 % 1022,5 hPa 0,0 l/m 18,6 km/h (3 Bft) O-SO 110 0 min 0 W/m 12,7 C 17,4 C 18,6 km/h (3 Bft)
04.06.2007 10:16 20,2 C 63 % 1022,5 hPa 0,0 l/m 12,4 km/h (2 Bft) SO 125 0 min 0 W/m 12,9 C 18,1 C 12,4 km/h (2 Bft)
04.06.2007 10:31 20,2 C 63 % 1022,5 hPa 0,0 l/m 13,2 km/h (3 Bft) O 90 0 min 0 W/m 12,9 C 17,9 C 13,2 km/h (3 Bft)
04.06.2007 10:46 20,6 C 62 % 1022,5 hPa 0,0 l/m 10,5 km/h (2 Bft) O 90 0 min 0 W/m 13,1 C 19,1 C 10,5 km/h (2 Bft)
04.06.2007 11:01 20,9 C 62 % 1022,5 hPa 0,0 l/m 12,3 km/h (2 Bft) NO 55 0 min 0 W/m 13,3 C 19,0 C 12,3 km/h (2 Bft)
04.06.2007 11:16 21,2 C 61 % 1022,5 hPa 0,0 l/m 12,5 km/h (2 Bft) O 100 0 min 0 W/m 13,4 C 19,3 C 12,5 km/h (2 Bft)
04.06.2007 11:31 21,5 C 60 % 1022,5 hPa 0,0 l/m 14,9 km/h (3 Bft) O-SO 110 0 min 0 W/m 13,4 C 19,1 C 14,9 km/h (3 Bft)
04.06.2007 11:46 21,1 C 60 % 1022,5 hPa 0,0 l/m 12,4 km/h (2 Bft) O-NO 60 0 min 0 W/m 13,0 C 19,2 C 12,4 km/h (2 Bft)
04.06.2007 12:01 21,4 C 59 % 1022,5 hPa 0,0 l/m 18,1 km/h (3 Bft) O 80 0 min 0 W/m 13,0 C 18,3 C 18,1 km/h (3 Bft)
04.06.2007 12:16 22,1 C 58 % 1022,5 hPa 0,0 l/m 13,1 km/h (3 Bft) O-SO 105 0 min 0 W/m 13,4 C 20,2 C 13,1 km/h (3 Bft)
04.06.2007 12:31 21,8 C 58 % 1022,5 hPa 0,0 l/m 10,1 km/h (2 Bft) O-SO 105 0 min 0 W/m 13,2 C 20,6 C 10,1 km/h (2 Bft)
04.06.2007 12:46 21,8 C 59 % 1022,5 hPa 0,0 l/m 11,5 km/h (2 Bft) S-SO 150 0 min 0 W/m 13,4 C 20,2 C 11,5 km/h (2 Bft)
04.06.2007 13:01 21,8 C 59 % 1022,5 hPa 0,0 l/m 10,6 km/h (2 Bft) S-SO 150 0 min 0 W/m 13,4 C 20,5 C 10,6 km/h (2 Bft)
04.06.2007 13:16 22,1 C 58 % 1022,5 hPa 0,0 l/m 7,4 km/h (2 Bft) O 95 0 min 0 W/m 13,4 C 21,8 C 7,4 km/h (2 Bft)
04.06.2007 13:31 21,4 C 60 % 1022,5 hPa 0,0 l/m 10,2 km/h (2 Bft) O 85 0 min 0 W/m 13,3 C 20,1 C 10,2 km/h (2 Bft)
04.06.2007 13:46 22,4 C 59 % 1022,5 hPa 0,0 l/m 6,1 km/h (2 Bft) O-NO 70 0 min 0 W/m 14,0 C 22,4 C 6,1 km/h (2 Bft)
04.06.2007 14:01 23,1 C 58 % 1021,5 hPa 0,0 l/m 8,5 km/h (2 Bft) O-NO 70 0 min 0 W/m 14,4 C 22,5 C 8,5 km/h (2 Bft)
04.06.2007 14:16 23,5 C 56 % 1021,5 hPa 0,0 l/m 7,7 km/h (2 Bft) O-NO 70 0 min 0 W/m 14,2 C 23,1 C 7,7 km/h (2 Bft)
04.06.2007 14:31 23,7 C 56 % 1021,5 hPa 0,0 l/m 12,5 km/h (2 Bft) O 90 0 min 0 W/m 14,4 C 22,2 C 12,5 km/h (2 Bft)
04.06.2007 14:46 23,5 C 55 % 1021,5 hPa 0,0 l/m 11,0 km/h (2 Bft) NO 45 0 min 0 W/m 13,9 C 22,3 C 11,0 km/h (2 Bft)
04.06.2007 15:01 23,6 C 56 % 1021,5 hPa 0,0 l/m 8,7 km/h (2 Bft) O 80 0 min 0 W/m 14,3 C 22,9 C 8,7 km/h (2 Bft)
04.06.2007 15:16 23,5 C 58 % 1021,5 hPa 0,0 l/m 14,5 km/h (3 Bft) N-NO 20 0 min 0 W/m 14,7 C 21,6 C 14,5 km/h (3 Bft)
04.06.2007 15:31 22,6 C 59 % 1021,5 hPa 0,0 l/m 10,6 km/h (2 Bft) N-NO 25 0 min 0 W/m 14,2 C 21,4 C 10,6 km/h (2 Bft)
04.06.2007 15:46 22,7 C 59 % 1021,5 hPa 0,0 l/m 13,0 km/h (3 Bft) N-NO 25 0 min 0 W/m 14,3 C 20,9 C 13,0 km/h (3 Bft)
04.06.2007 16:01 22,7 C 59 % 1021,5 hPa 0,0 l/m 13,1 km/h (3 Bft) N-NO 25 0 min 0 W/m 14,3 C 20,9 C 13,1 km/h (3 Bft)
04.06.2007 16:16 22,8 C 60 % 1021,5 hPa 0,0 l/m 15,2 km/h (3 Bft) NO 40 0 min 0 W/m 14,6 C 20,6 C 15,2 km/h (3 Bft)
04.06.2007 16:31 22,7 C 59 % 1021,5 hPa 0,0 l/m 9,0 km/h (2 Bft) O-NO 75 0 min 0 W/m 14,3 C 21,9 C 9,0 km/h (2 Bft)
04.06.2007 16:46 22,8 C 59 % 1021,5 hPa 0,0 l/m 11,3 km/h (2 Bft) O-NO 75 0 min 0 W/m 14,4 C 21,4 C 11,3 km/h (2 Bft)
04.06.2007 17:01 22,6 C 60 % 1021,5 hPa 0,0 l/m 10,7 km/h (2 Bft) NO 55 0 min 0 W/m 14,4 C 21,3 C 10,7 km/h (2 Bft)
04.06.2007 17:16 21,9 C 63 % 1021,5 hPa 0,0 l/m 9,8 km/h (2 Bft) NO 45 0 min 0 W/m 14,5 C 20,8 C 9,8 km/h (2 Bft)
04.06.2007 17:31 21,8 C 62 % 1021,5 hPa 0,0 l/m 11,7 km/h (2 Bft) NO 35 0 min 0 W/m 14,2 C 20,2 C 11,7 km/h (2 Bft)
04.06.2007 17:46 21,6 C 63 % 1021,5 hPa 0,0 l/m 14,3 km/h (3 Bft) NO 35 0 min 0 W/m 14,2 C 19,3 C 14,3 km/h (3 Bft)
04.06.2007 18:01 21,5 C 63 % 1021,5 hPa 0,0 l/m 13,6 km/h (3 Bft) O-SO 105 0 min 0 W/m 14,2 C 19,4 C 13,6 km/h (3 Bft)
04.06.2007 18:16 21,9 C 62 % 1021,5 hPa 0,0 l/m 12,0 km/h (2 Bft) SO 130 0 min 0 W/m 14,3 C 20,2 C 12,0 km/h (2 Bft)
04.06.2007 18:31 22,2 C 61 % 1021,5 hPa 0,0 l/m 15,5 km/h (3 Bft) O-SO 105 0 min 0 W/m 14,3 C 19,8 C 15,5 km/h (3 Bft)
04.06.2007 18:46 22,0 C 62 % 1021,5 hPa 0,0 l/m 12,3 km/h (2 Bft) O-SO 110 0 min 0 W/m 14,4 C 20,3 C 12,3 km/h (2 Bft)
04.06.2007 19:01 21,7 C 62 % 1021,5 hPa 0,0 l/m 12,4 km/h (2 Bft) O 95 0 min 0 W/m 14,1 C 19,9 C 12,4 km/h (2 Bft)
04.06.2007 19:16 21,8 C 61 % 1021,5 hPa 0,0 l/m 10,2 km/h (2 Bft) O-NO 65 0 min 0 W/m 13,9 C 20,6 C 10,2 km/h (2 Bft)
04.06.2007 19:31 21,4 C 63 % 1021,5 hPa 0,0 l/m 10,0 km/h (2 Bft) O 85 0 min 0 W/m 14,1 C 20,2 C 10,0 km/h (2 Bft)
04.06.2007 19:46 21,4 C 62 % 1021,5 hPa 0,0 l/m 12,9 km/h (3 Bft) O 90 0 min 0 W/m 13,8 C 19,4 C 12,9 km/h (3 Bft)
04.06.2007 20:01 21,1 C 62 % 1021,5 hPa 0,0 l/m 12,1 km/h (2 Bft) O-NO 75 0 min 0 W/m 13,5 C 19,3 C 12,1 km/h (2 Bft)
04.06.2007 20:16 20,6 C 63 % 1021,5 hPa 0,0 l/m 12,3 km/h (2 Bft) O 95 0 min 0 W/m 13,3 C 18,6 C 12,3 km/h (2 Bft)
04.06.2007 20:31 20,7 C 63 % 1021,5 hPa 0,0 l/m 10,7 km/h (2 Bft) O-SO 115 0 min 0 W/m 13,4 C 19,2 C 10,7 km/h (2 Bft)
04.06.2007 20:46 20,4 C 64 % 1021,5 hPa 0,0 l/m 14,1 km/h (3 Bft) O 85 0 min 0 W/m 13,4 C 17,9 C 14,1 km/h (3 Bft)
04.06.2007 21:01 20,4 C 64 % 1021,5 hPa 0,0 l/m 11,5 km/h (2 Bft) O 95 0 min 0 W/m 13,4 C 18,6 C 11,5 km/h (2 Bft)
04.06.2007 21:16 20,1 C 64 % 1021,5 hPa 0,0 l/m 8,5 km/h (2 Bft) O-SO 110 0 min 0 W/m 13,1 C 19,3 C 8,5 km/h (2 Bft)
04.06.2007 21:31 19,8 C 65 % 1021,5 hPa 0,0 l/m 10,6 km/h (2 Bft) O-NO 75 0 min 0 W/m 13,0 C 18,2 C 10,6 km/h (2 Bft)
04.06.2007 21:46 19,5 C 66 % 1021,5 hPa 0,0 l/m 9,1 km/h (2 Bft) NO 45 0 min 0 W/m 13,0 C 18,4 C 9,1 km/h (2 Bft)
04.06.2007 22:02 19,6 C 66 % 1021,5 hPa 0,0 l/m 9,8 km/h (2 Bft) O-NO 70 0 min 0 W/m 13,1 C 18,3 C 9,8 km/h (2 Bft)
04.06.2007 22:17 18,6 C 67 % 1021,5 hPa 0,0 l/m 8,2 km/h (2 Bft) O-NO 75 0 min 0 W/m 12,3 C 17,8 C 8,2 km/h (2 Bft)
04.06.2007 22:32 17,8 C 69 % 1021,5 hPa 0,0 l/m 5,5 km/h (2 Bft) O 80 0 min 0 W/m 12,0 C 17,8 C 5,5 km/h (2 Bft)
04.06.2007 22:47 16,9 C 73 % 1021,5 hPa 0,0 l/m 5,6 km/h (2 Bft) SO 125 0 min 0 W/m 12,0 C 16,9 C 5,6 km/h (2 Bft)
04.06.2007 23:02 16,5 C 75 % 1021,5 hPa 0,0 l/m 7,9 km/h (2 Bft) SO 125 0 min 0 W/m 12,1 C 15,7 C 7,9 km/h (2 Bft)
04.06.2007 23:17 16,4 C 76 % 1021,5 hPa 0,0 l/m 7,2 km/h (2 Bft) O 100 0 min 0 W/m 12,2 C 16,0 C 7,2 km/h (2 Bft)
04.06.2007 23:32 16,2 C 76 % 1021,5 hPa 0,0 l/m 10,6 km/h (2 Bft) SO 125 0 min 0 W/m 12,0 C 14,2 C 10,6 km/h (2 Bft)
04.06.2007 23:47 16,0 C 77 % 1022,5 hPa 0,0 l/m 7,5 km/h (2 Bft) SO 130 0 min 0 W/m 12,0 C 15,4 C 7,5 km/h (2 Bft)
_ Min-Zeit 04:31 14:46 00:01 - 22:32 - - - - 01:46 05:01 22:32
Minimum _ 13,9 C 55 % 1021,5 hPa - 5,5 km/h (2 Bft) - - - - 10,3 C 9,5 C 5,5 km/h (2 Bft)
_ Max-Zeit 14:31 06:46 01:01 00:01 10:01 - - 00:01 00:01 15:16 14:16 10:01
Maximum _ 23,7 C 83 % 1022,5 hPa 0,0 l/m 18,6 km/h
O-SO (3 Bft)
- - 0 min 0 W/m 14,7 C 23,1 C 18,6 km/h
O-SO (3 Bft)
Durchschnitt _ 18,8 C 68 % 1021,8 hPa #0,0 l/m 12,3 km/h (2 Bft) O - #0 min. 0 W/m 12,6 C 16,6 C 12,3 km/h (2 Bft)
copyright by Holger Just